createdAt,value
2022-09-29T00:00:51.518Z,1.10
2022-09-29T00:03:19.986Z,0.00
2022-09-29T00:05:50.650Z,0.00
2022-09-29T00:08:19.016Z,0.00
2022-09-29T00:10:47.693Z,0.10
2022-09-29T00:13:16.469Z,0.70
2022-09-29T00:15:44.581Z,0.00
2022-09-29T00:18:14.471Z,0.00
2022-09-29T00:20:42.466Z,1.70
2022-09-29T00:23:11.351Z,0.00
2022-09-29T00:25:39.678Z,0.00
2022-09-29T00:28:07.423Z,0.03
2022-09-29T00:30:35.152Z,0.17
2022-09-29T00:33:02.951Z,0.00
2022-09-29T00:35:30.752Z,0.10
2022-09-29T00:37:58.779Z,0.28
2022-09-29T00:40:28.044Z,0.00
2022-09-29T00:42:55.668Z,0.20
2022-09-29T00:45:25.235Z,0.30
2022-09-29T00:48:04.623Z,0.10
2022-09-29T00:50:40.768Z,0.30
2022-09-29T00:53:13.383Z,0.80
2022-09-29T00:55:47.278Z,0.00
2022-09-29T00:58:22.680Z,0.00
2022-09-29T01:00:50.458Z,0.65
2022-09-29T01:03:21.776Z,1.60
2022-09-29T01:05:54.099Z,0.80
2022-09-29T01:08:24.733Z,0.00
2022-09-29T01:10:55.232Z,0.00
2022-09-29T01:13:23.265Z,0.15
2022-09-29T01:15:50.874Z,0.28
2022-09-29T01:18:18.706Z,0.00
2022-09-29T01:20:54.367Z,0.08
2022-09-29T01:23:35.542Z,0.10
2022-09-29T01:26:35.372Z,0.20
2022-09-29T01:29:45.290Z,0.00
2022-09-29T01:32:20.605Z,0.50
2022-09-29T01:34:53.457Z,0.10
2022-09-29T01:37:26.303Z,0.25
2022-09-29T01:40:00.938Z,0.73
2022-09-29T01:42:32.580Z,0.00
2022-09-29T01:45:04.033Z,0.60
2022-09-29T01:47:37.740Z,0.20
2022-09-29T01:50:08.103Z,0.00
2022-09-29T01:52:41.860Z,0.43
2022-09-29T01:55:11.599Z,0.13
2022-09-29T01:57:44.924Z,0.05
2022-09-29T02:00:15.712Z,0.30
2022-09-29T02:02:47.695Z,0.10
2022-09-29T02:05:18.418Z,0.30
2022-09-29T02:07:47.663Z,0.10
2022-09-29T02:10:19.364Z,1.30
2022-09-29T02:12:48.270Z,0.10
2022-09-29T02:15:20.197Z,0.00
2022-09-29T02:17:52.005Z,0.20
2022-09-29T02:20:20.065Z,3.10
2022-09-29T02:22:47.836Z,0.40
2022-09-29T02:25:18.370Z,0.00
2022-09-29T02:27:46.519Z,0.20
2022-09-29T02:30:14.371Z,0.10
2022-09-29T02:32:42.692Z,0.00
2022-09-29T02:35:13.143Z,1.10
2022-09-29T02:37:54.689Z,0.00
2022-09-29T02:40:34.095Z,0.10
2022-09-29T02:43:15.921Z,0.00
2022-09-29T02:45:55.260Z,0.93
2022-09-29T02:48:38.239Z,1.67
2022-09-29T02:51:18.853Z,1.00
2022-09-29T02:53:54.244Z,0.00
2022-09-29T02:56:26.933Z,0.22
2022-09-29T02:58:59.066Z,0.00
2022-09-29T03:01:26.974Z,0.10
2022-09-29T03:03:54.554Z,0.00
2022-09-29T03:06:24.172Z,0.50
2022-09-29T03:08:51.889Z,0.50
2022-09-29T03:11:19.429Z,0.60
2022-09-29T03:13:47.190Z,0.00
2022-09-29T03:16:15.155Z,2.30
2022-09-29T03:18:44.171Z,0.05
2022-09-29T03:21:12.075Z,0.17
2022-09-29T03:23:41.026Z,0.22
2022-09-29T03:26:08.884Z,0.00
2022-09-29T03:28:37.189Z,0.00
2022-09-29T03:31:05.904Z,4.70
2022-09-29T03:33:33.716Z,0.50
2022-09-29T03:36:01.904Z,0.03
2022-09-29T03:38:29.762Z,0.10
2022-09-29T03:40:58.899Z,0.20
2022-09-29T03:43:26.468Z,0.68
2022-09-29T03:45:55.844Z,0.10
2022-09-29T03:48:24.956Z,0.10
2022-09-29T03:50:53.814Z,0.08
2022-09-29T03:53:21.448Z,0.08
2022-09-29T03:55:50.071Z,0.20
2022-09-29T03:58:19.723Z,0.00
2022-09-29T04:00:49.795Z,0.00
2022-09-29T04:03:17.719Z,0.05
2022-09-29T04:05:46.026Z,0.40
2022-09-29T04:08:13.814Z,0.40
2022-09-29T04:10:41.994Z,0.00
2022-09-29T04:13:10.706Z,0.20
2022-09-29T04:15:39.672Z,1.90
2022-09-29T04:18:07.632Z,12.30
2022-09-29T04:20:35.209Z,0.00
2022-09-29T04:23:02.773Z,0.08
2022-09-29T04:25:31.576Z,0.20
2022-09-29T04:28:00.146Z,2.00
2022-09-29T04:30:27.870Z,0.10
2022-09-29T04:32:56.954Z,0.00
2022-09-29T04:35:24.591Z,0.17
2022-09-29T04:37:57.100Z,1.33
2022-09-29T04:40:24.979Z,1.93
2022-09-29T04:42:53.107Z,0.38
2022-09-29T04:45:20.906Z,1.20
2022-09-29T04:47:48.992Z,0.10
2022-09-29T04:50:18.321Z,0.10
2022-09-29T04:52:46.595Z,0.10
2022-09-29T04:55:15.172Z,0.00
2022-09-29T04:57:44.552Z,0.00
2022-09-29T05:00:13.009Z,0.00
2022-09-29T05:02:40.791Z,0.40
2022-09-29T05:05:10.343Z,0.10
2022-09-29T05:07:40.280Z,0.90
2022-09-29T05:10:10.641Z,0.00
2022-09-29T05:12:38.372Z,1.10
2022-09-29T05:15:07.168Z,0.60
2022-09-29T05:17:35.186Z,0.60
2022-09-29T05:20:03.571Z,0.80
2022-09-29T05:22:31.384Z,0.20
2022-09-29T05:25:01.301Z,0.70
2022-09-29T05:27:28.851Z,0.90
2022-09-29T05:29:56.412Z,0.00
2022-09-29T05:32:24.209Z,0.03
2022-09-29T05:34:51.939Z,0.88
2022-09-29T05:37:19.471Z,0.13
2022-09-29T05:39:47.954Z,0.55
2022-09-29T05:42:17.158Z,0.00
2022-09-29T05:44:44.918Z,0.30
2022-09-29T05:47:12.661Z,0.00
2022-09-29T05:49:40.288Z,0.87
2022-09-29T05:52:07.986Z,0.10
2022-09-29T05:54:35.920Z,0.10
2022-09-29T05:57:03.428Z,0.50
2022-09-29T05:59:32.510Z,0.03
2022-09-29T06:02:00.412Z,0.60
2022-09-29T06:04:28.348Z,0.20
2022-09-29T06:06:56.368Z,1.40
2022-09-29T06:09:24.744Z,0.10
2022-09-29T06:11:52.261Z,0.28
2022-09-29T06:14:19.938Z,0.90
2022-09-29T06:16:50.106Z,2.10
2022-09-29T06:19:17.989Z,0.25
2022-09-29T06:21:46.865Z,0.40
2022-09-29T06:24:14.718Z,2.70
2022-09-29T06:26:42.537Z,0.80
2022-09-29T06:29:10.417Z,1.30
2022-09-29T06:31:38.766Z,0.43
2022-09-29T06:34:08.065Z,0.70
2022-09-29T06:36:56.313Z,0.28
2022-09-29T06:39:24.030Z,0.15
2022-09-29T06:41:54.389Z,0.00
2022-09-29T06:44:24.482Z,0.00
2022-09-29T06:46:52.447Z,0.17
2022-09-29T06:49:21.774Z,0.40
2022-09-29T06:51:50.514Z,0.00
2022-09-29T06:54:20.929Z,0.35
2022-09-29T06:56:50.476Z,0.10
2022-09-29T06:59:18.865Z,0.10
2022-09-29T07:01:51.002Z,0.30
2022-09-29T07:04:21.812Z,0.10
2022-09-29T07:06:52.371Z,0.13
2022-09-29T07:09:21.171Z,8.90
2022-09-29T07:11:50.614Z,1.08
2022-09-29T07:14:20.398Z,0.80
2022-09-29T07:16:48.523Z,2.47
2022-09-29T07:19:16.953Z,0.38
2022-09-29T07:21:46.382Z,1.20
2022-09-29T07:24:14.809Z,0.90
2022-09-29T07:26:42.358Z,0.00
2022-09-29T07:29:18.270Z,5.40
2022-09-29T07:31:51.860Z,0.40
2022-09-29T07:34:20.113Z,0.30
2022-09-29T07:36:49.347Z,0.20
2022-09-29T07:39:17.727Z,0.00
2022-09-29T07:41:45.756Z,0.00
2022-09-29T07:44:14.154Z,0.00
2022-09-29T07:46:41.722Z,0.20
2022-09-29T07:49:09.588Z,1.60
2022-09-29T07:51:37.338Z,0.80
2022-09-29T07:54:06.618Z,0.52
2022-09-29T07:56:35.521Z,0.40
2022-09-29T07:59:04.167Z,1.60
2022-09-29T08:01:32.229Z,2.60
2022-09-29T08:03:59.943Z,0.00
2022-09-29T08:06:28.035Z,1.00
2022-09-29T08:09:04.017Z,0.40
2022-09-29T08:11:34.876Z,0.25
2022-09-29T08:14:03.115Z,0.30
2022-09-29T08:16:30.927Z,0.60
2022-09-29T08:18:58.507Z,1.60
2022-09-29T08:21:26.442Z,1.60
2022-09-29T08:23:54.115Z,0.13
2022-09-29T08:26:35.713Z,0.30
2022-09-29T08:29:09.109Z,1.20
2022-09-29T08:31:37.988Z,0.00
2022-09-29T08:34:05.854Z,0.90
2022-09-29T08:36:33.421Z,0.00
2022-09-29T08:39:01.109Z,1.80
2022-09-29T08:41:38.447Z,0.90
2022-09-29T08:44:28.895Z,4.70
2022-09-29T08:47:10.014Z,0.30
2022-09-29T08:49:41.632Z,0.10
2022-09-29T08:52:17.140Z,0.10
2022-09-29T08:54:49.197Z,0.90
2022-09-29T08:57:18.946Z,0.20
2022-09-29T08:59:55.072Z,0.40
2022-09-29T09:02:39.390Z,0.50
2022-09-29T09:05:25.983Z,0.10
2022-09-29T09:08:00.557Z,0.40
2022-09-29T09:10:37.546Z,0.60
2022-09-29T09:13:17.647Z,0.35
2022-09-29T09:15:58.291Z,0.17
2022-09-29T09:18:37.359Z,0.60
2022-09-29T09:21:09.368Z,0.30
2022-09-29T09:23:46.310Z,1.45
2022-09-29T09:26:14.870Z,0.10
2022-09-29T09:28:44.504Z,0.60
2022-09-29T09:31:17.583Z,0.08
2022-09-29T09:34:01.570Z,1.67
2022-09-29T09:36:36.845Z,1.90
2022-09-29T09:39:08.043Z,0.30
2022-09-29T09:41:37.431Z,0.20
2022-09-29T09:44:08.397Z,0.00
2022-09-29T09:46:41.205Z,0.20
2022-09-29T09:49:17.454Z,0.10
2022-09-29T09:51:49.281Z,0.20
2022-09-29T09:54:23.458Z,0.00
2022-09-29T09:57:23.389Z,1.20
2022-09-29T10:00:01.141Z,0.00
2022-09-29T10:02:31.017Z,3.93
2022-09-29T10:04:58.729Z,0.90
2022-09-29T10:07:30.133Z,1.00
2022-09-29T10:09:58.956Z,0.00
2022-09-29T10:12:26.586Z,0.47
2022-09-29T10:14:58.264Z,0.10
2022-09-29T10:17:31.416Z,0.90
2022-09-29T10:20:00.172Z,0.10
2022-09-29T10:22:28.869Z,0.10
2022-09-29T10:25:09.222Z,0.00
2022-09-29T10:27:41.236Z,0.00
2022-09-29T10:30:19.164Z,0.00
2022-09-29T10:32:48.284Z,1.20
2022-09-29T10:35:23.780Z,0.60
2022-09-29T10:37:59.777Z,1.80
2022-09-29T10:40:27.302Z,6.28
2022-09-29T10:42:55.074Z,17.10
2022-09-29T10:45:24.594Z,18.15
2022-09-29T10:50:54.908Z,16.23
2022-09-29T10:53:34.184Z,13.00
2022-09-29T10:56:05.531Z,9.23
2022-09-29T10:58:52.671Z,14.50
2022-09-29T11:01:23.781Z,10.93
2022-09-29T11:03:54.773Z,8.77
2022-09-29T11:06:29.087Z,11.63
2022-09-29T11:09:02.122Z,10.27
2022-09-29T11:11:31.317Z,9.68
2022-09-29T11:13:59.285Z,6.25
2022-09-29T11:16:37.976Z,7.28
2022-09-29T11:19:08.803Z,9.27
2022-09-29T11:22:11.173Z,8.65
2022-09-29T11:24:50.491Z,12.82
2022-09-29T11:27:29.638Z,10.68
2022-09-29T11:30:03.038Z,11.77
2022-09-29T11:32:42.017Z,10.77
2022-09-29T11:35:24.801Z,10.95
2022-09-29T11:38:10.976Z,9.98
2022-09-29T11:40:45.456Z,8.03
2022-09-29T11:43:27.515Z,8.18
2022-09-29T11:46:01.580Z,9.90
2022-09-29T11:48:44.768Z,3.92
2022-09-29T11:51:20.555Z,6.32
2022-09-29T11:54:03.985Z,10.45
2022-09-29T11:56:39.797Z,6.00
2022-09-29T11:59:17.515Z,4.90
2022-09-29T12:01:55.324Z,6.43
2022-09-29T12:04:35.266Z,4.85
2022-09-29T12:07:09.774Z,6.45
2022-09-29T12:09:59.436Z,8.10
2022-09-29T12:12:34.336Z,11.40
2022-09-29T12:15:09.174Z,11.63
2022-09-29T12:17:39.406Z,8.27
2022-09-29T12:20:10.581Z,6.13
2022-09-29T12:22:39.186Z,7.50
2022-09-29T12:25:14.906Z,5.33
2022-09-29T12:27:44.315Z,4.80
2022-09-29T12:30:16.884Z,3.75
2022-09-29T12:32:51.801Z,6.00
2022-09-29T12:35:23.915Z,2.78
2022-09-29T12:37:57.682Z,5.07
2022-09-29T12:40:33.116Z,8.23
2022-09-29T12:43:05.888Z,3.80
2022-09-29T12:45:36.580Z,2.15
2022-09-29T12:48:16.908Z,2.72
2022-09-29T12:50:51.328Z,11.32
2022-09-29T12:53:22.837Z,14.82
2022-09-29T12:55:59.341Z,5.70
2022-09-29T12:58:32.869Z,2.60
2022-09-29T13:01:05.053Z,3.67
2022-09-29T13:03:56.443Z,8.07
2022-09-29T13:06:36.807Z,2.60
2022-09-29T13:09:24.649Z,5.77
2022-09-29T13:12:02.464Z,1.98
2022-09-29T13:14:55.856Z,2.78
2022-09-29T13:17:45.794Z,2.40
2022-09-29T13:20:30.959Z,4.50
2022-09-29T13:23:19.618Z,1.40
2022-09-29T13:25:55.816Z,2.88
2022-09-29T13:28:30.759Z,2.65
2022-09-29T13:31:02.504Z,2.33
2022-09-29T13:33:30.310Z,6.63
2022-09-29T13:35:58.260Z,5.70
2022-09-29T13:38:28.216Z,3.33
2022-09-29T13:41:11.301Z,4.70
2022-09-29T13:43:41.185Z,1.92
2022-09-29T13:46:28.343Z,1.33
2022-09-29T13:49:04.167Z,2.70
2022-09-29T13:51:52.599Z,2.50
2022-09-29T13:54:26.006Z,5.57
2022-09-29T13:57:01.379Z,10.73
2022-09-29T13:59:30.208Z,11.25
2022-09-29T14:01:58.887Z,3.40
2022-09-29T14:04:47.342Z,3.78
2022-09-29T14:07:35.425Z,3.75
2022-09-29T14:10:07.148Z,4.70
2022-09-29T14:12:35.833Z,6.43
2022-09-29T14:15:05.179Z,3.03
2022-09-29T14:17:36.383Z,2.53
2022-09-29T14:20:14.757Z,4.22
2022-09-29T14:23:03.608Z,3.55
2022-09-29T14:25:50.585Z,7.43
2022-09-29T14:28:21.987Z,4.45
2022-09-29T14:30:52.675Z,4.35
2022-09-29T14:33:23.345Z,3.72
2022-09-29T14:35:56.476Z,3.78
2022-09-29T14:38:26.546Z,1.92
2022-09-29T14:40:55.894Z,3.38
2022-09-29T14:43:26.398Z,2.58
2022-09-29T14:46:30.764Z,3.20
2022-09-29T14:49:22.137Z,4.60
2022-09-29T14:52:01.716Z,3.88
2022-09-29T14:54:43.146Z,1.70
2022-09-29T14:57:24.573Z,2.50
2022-09-29T15:00:03.405Z,2.45
2022-09-29T15:02:34.352Z,3.58
2022-09-29T15:05:13.700Z,5.75
2022-09-29T15:07:42.669Z,3.30
2022-09-29T15:10:26.926Z,4.80
2022-09-29T15:12:54.851Z,3.13
2022-09-29T15:15:34.655Z,3.00
2022-09-29T15:18:12.866Z,1.23
2022-09-29T15:20:53.550Z,2.58
2022-09-29T15:23:36.836Z,2.33
2022-09-29T15:26:05.085Z,8.32
2022-09-29T15:28:35.001Z,4.93
2022-09-29T15:31:04.936Z,4.13
2022-09-29T15:33:38.432Z,2.67
2022-09-29T15:36:08.573Z,2.75
2022-09-29T15:38:38.701Z,2.50
2022-09-29T15:41:16.652Z,3.50
2022-09-29T15:43:46.666Z,2.22
2022-09-29T15:46:18.046Z,1.33
2022-09-29T15:49:08.039Z,9.13
2022-09-29T15:51:35.948Z,3.25
2022-09-29T15:54:05.091Z,2.70
2022-09-29T15:56:32.896Z,2.35
2022-09-29T15:59:02.489Z,3.78
2022-09-29T16:01:30.120Z,4.10
2022-09-29T16:04:01.597Z,3.65
2022-09-29T16:06:31.890Z,3.47
2022-09-29T16:09:02.052Z,2.22
2022-09-29T16:15:27.042Z,3.47
2022-09-29T16:17:54.739Z,3.85
2022-09-29T16:20:28.483Z,2.40
2022-09-29T16:22:57.044Z,3.60
2022-09-29T16:25:27.166Z,5.28
2022-09-29T16:27:57.422Z,3.22
2022-09-29T16:30:27.857Z,3.63
2022-09-29T16:32:59.528Z,3.70
2022-09-29T16:35:50.836Z,3.45
2022-09-29T16:38:34.326Z,3.58
2022-09-29T16:41:09.499Z,6.18
2022-09-29T16:43:38.172Z,3.15
2022-09-29T16:46:08.338Z,7.15
2022-09-29T16:48:39.538Z,2.88
2022-09-29T16:51:27.826Z,3.45
2022-09-29T16:54:00.289Z,3.35
2022-09-29T16:56:33.630Z,3.08
2022-09-29T16:59:13.182Z,3.90
2022-09-29T17:01:41.597Z,8.07
2022-09-29T17:04:14.160Z,4.82
2022-09-29T17:06:47.034Z,7.82
2022-09-29T17:09:19.900Z,3.22
2022-09-29T17:11:48.746Z,4.75
2022-09-29T17:14:18.287Z,5.33
2022-09-29T17:16:46.283Z,4.45
2022-09-29T17:19:14.071Z,6.23
2022-09-29T17:21:43.924Z,8.00
2022-09-29T17:24:15.912Z,6.47
2022-09-29T17:27:02.909Z,10.35
2022-09-29T17:29:31.701Z,7.90
2022-09-29T17:32:02.238Z,5.28
2022-09-29T17:34:30.133Z,9.15
2022-09-29T17:37:01.743Z,7.40
2022-09-29T17:39:29.772Z,8.23
2022-09-29T17:41:58.999Z,9.90
2022-09-29T17:44:27.995Z,9.07
2022-09-29T17:47:05.615Z,10.60
2022-09-29T17:49:44.320Z,9.15
2022-09-29T17:52:15.485Z,9.88
2022-09-29T17:54:43.231Z,9.30
2022-09-29T17:57:18.181Z,8.52
2022-09-29T17:59:45.873Z,9.43
2022-09-29T18:02:17.979Z,11.95
2022-09-29T18:04:48.748Z,11.90
2022-09-29T18:07:17.610Z,8.70
2022-09-29T18:09:47.303Z,14.52
2022-09-29T18:12:14.988Z,12.77
2022-09-29T18:14:42.894Z,11.68
2022-09-29T18:17:11.195Z,10.67
2022-09-29T18:19:39.989Z,11.18
2022-09-29T18:22:08.150Z,13.18
2022-09-29T18:24:37.304Z,12.88
2022-09-29T18:27:05.665Z,11.70
2022-09-29T18:29:34.275Z,12.07
2022-09-29T18:32:02.491Z,11.40
2022-09-29T18:34:33.390Z,8.63
2022-09-29T18:37:01.812Z,8.43
2022-09-29T18:39:29.420Z,10.13
2022-09-29T18:41:58.776Z,12.18
2022-09-29T18:44:29.473Z,13.57
2022-09-29T18:46:57.099Z,11.20
2022-09-29T18:49:25.730Z,9.98
2022-09-29T18:51:53.691Z,11.90
2022-09-29T18:54:21.179Z,10.32
2022-09-29T18:56:51.419Z,13.33
2022-09-29T18:59:23.006Z,11.70
2022-09-29T19:01:50.941Z,11.73
2022-09-29T19:04:18.797Z,10.93
2022-09-29T19:06:46.523Z,10.60
2022-09-29T19:09:14.719Z,10.90
2022-09-29T19:11:42.386Z,15.07
2022-09-29T19:14:10.097Z,12.55
2022-09-29T19:16:39.269Z,11.68
2022-09-29T19:19:08.437Z,11.77
2022-09-29T19:21:35.962Z,10.63
2022-09-29T19:24:03.474Z,15.88
2022-09-29T19:26:31.350Z,11.25
2022-09-29T19:28:58.994Z,13.10
2022-09-29T19:31:26.688Z,15.93
2022-09-29T19:33:57.358Z,11.65
2022-09-29T19:36:25.080Z,11.82
2022-09-29T19:38:52.999Z,13.77
2022-09-29T19:41:22.436Z,16.13
2022-09-29T19:43:50.456Z,15.68
2022-09-29T19:46:19.680Z,12.33
2022-09-29T19:48:47.408Z,14.48
2022-09-29T19:51:34.513Z,12.50
2022-09-29T19:54:14.413Z,14.95
2022-09-29T19:56:43.922Z,15.60
2022-09-29T19:59:14.640Z,16.55
2022-09-29T20:01:42.632Z,20.35
2022-09-29T20:04:11.572Z,15.75
2022-09-29T20:06:41.553Z,16.30
2022-09-29T20:09:09.918Z,17.05
2022-09-29T20:11:37.946Z,15.25
2022-09-29T20:14:07.540Z,14.57
2022-09-29T20:16:37.514Z,20.17
2022-09-29T20:19:07.047Z,19.23
2022-09-29T20:21:39.605Z,20.60
2022-09-29T20:24:08.551Z,17.33
2022-09-29T20:26:36.822Z,25.02
2022-09-29T20:29:05.008Z,17.33
2022-09-29T20:31:38.780Z,15.60
2022-09-29T20:34:06.868Z,15.93
2022-09-29T20:36:35.349Z,18.15
2022-09-29T20:39:02.995Z,19.38
2022-09-29T20:41:32.010Z,17.10
2022-09-29T20:44:00.567Z,15.05
2022-09-29T20:46:28.582Z,18.00
2022-09-29T20:48:58.665Z,20.03
2022-09-29T20:51:27.205Z,19.73
2022-09-29T20:53:56.512Z,20.63
2022-09-29T20:56:25.646Z,18.10
2022-09-29T20:58:54.738Z,19.70
2022-09-29T21:01:24.093Z,20.53
2022-09-29T21:03:52.991Z,17.35
2022-09-29T21:06:21.050Z,17.25
2022-09-29T21:08:48.815Z,18.02
2022-09-29T21:11:16.998Z,21.67
2022-09-29T21:13:47.013Z,19.73
2022-09-29T21:16:16.075Z,21.23
2022-09-29T21:18:43.823Z,19.05
2022-09-29T21:21:11.811Z,24.55
2022-09-29T21:23:41.793Z,18.73
2022-09-29T21:26:14.111Z,17.15
2022-09-29T21:28:43.103Z,22.83
2022-09-29T21:31:12.505Z,22.10
2022-09-29T21:33:42.794Z,26.70
2022-09-29T21:36:13.087Z,24.65
2022-09-29T21:38:43.124Z,15.45
2022-09-29T21:41:15.977Z,19.75
2022-09-29T21:43:45.055Z,18.87
2022-09-29T21:46:14.561Z,20.33
2022-09-29T21:48:43.737Z,20.30
2022-09-29T21:51:13.413Z,22.85
2022-09-29T21:53:41.747Z,19.88
2022-09-29T21:56:11.372Z,19.08
2022-09-29T21:58:39.270Z,21.98
2022-09-29T22:01:11.544Z,23.52
2022-09-29T22:03:41.917Z,18.20
2022-09-29T22:06:14.115Z,32.58
2022-09-29T22:08:42.251Z,29.35
2022-09-29T22:11:10.800Z,27.27
2022-09-29T22:13:39.203Z,27.88
2022-09-29T22:16:08.602Z,26.23
2022-09-29T22:18:41.459Z,29.38
2022-09-29T22:21:17.142Z,23.83
2022-09-29T22:23:46.617Z,26.10
2022-09-29T22:26:15.908Z,23.60
2022-09-29T22:28:45.132Z,23.63
2022-09-29T22:31:14.138Z,22.05
2022-09-29T22:33:43.494Z,23.00
2022-09-29T22:36:12.298Z,28.08
2022-09-29T22:38:42.724Z,27.48
2022-09-29T22:41:13.502Z,27.45
2022-09-29T22:43:41.046Z,26.50
2022-09-29T22:46:09.263Z,29.45
2022-09-29T22:48:37.436Z,24.80
2022-09-29T22:51:05.656Z,25.33
2022-09-29T22:53:33.713Z,25.23
2022-09-29T22:56:02.891Z,24.83
2022-09-29T22:58:32.004Z,24.75
2022-09-29T23:01:04.771Z,22.40
2022-09-29T23:03:32.533Z,28.27
2022-09-29T23:06:00.777Z,22.47
2022-09-29T23:08:30.377Z,22.53
2022-09-29T23:10:58.038Z,22.60
2022-09-29T23:13:27.800Z,24.02
2022-09-29T23:15:56.840Z,22.20
2022-09-29T23:18:24.377Z,22.95
2022-09-29T23:20:52.384Z,23.50
2022-09-29T23:23:20.535Z,21.00
2022-09-29T23:25:49.707Z,19.38
2022-09-29T23:28:17.543Z,21.15
2022-09-29T23:30:45.040Z,19.42
2022-09-29T23:33:14.149Z,18.08
2022-09-29T23:35:41.672Z,18.70
2022-09-29T23:38:27.871Z,19.52
2022-09-29T23:40:55.551Z,17.00
2022-09-29T23:43:23.839Z,17.40
2022-09-29T23:45:51.635Z,19.43
2022-09-29T23:48:21.748Z,21.33
2022-09-29T23:50:49.559Z,22.55
2022-09-29T23:53:17.486Z,18.75
2022-09-29T23:55:45.191Z,16.15
2022-09-29T23:58:12.928Z,17.27
